Terminal Aerodrome Forecast
Issued by NWS

Home | Current Version | Previous Version | Text Only | Print | Product List | Glossary On
Versions: 1 2 3 4 5 6 7 8 9 10 11 12
000
FTUS43 KLSX 252320
TAFSUS
TAF
KSUS 252320Z 2600/2624 16015G25KT P6SM SCT250
     FM260100 17011KT P6SM SCT250
     FM261000 17007KT P6SM VCSH BKN100
     FM261400 19009KT P6SM OVC025
     FM261900 19012KT P6SM VCTS OVC030CB=

USA.gov is the U.S. government's official web portal to all federal, state and local government web resources and services.